BZZ weather

RAF Brize Norton
Brize Norton, England, United Kingdom

Public forecast

Using degrees Celsius for public forecast. Weather courtesy of forecast.io.

Current aviation weather report (METAR) for RAF Brize Norton

Retrieved 2020/02/17 23:50 UTC (19 minutes ago):

EGVN 172350Z 24008KT CAVOK 04/02 Q1017 NOSIG

Aviation forecast (TAF) for RAF Brize Norton

Retrieved 2020-02-18 00:00 UTC (9 minutes ago):

TAF EGVN 172233Z 1800/1824 25008KT 9999 FEW040 PROB30 TEMPO 1803/1807 SCT014 PROB40 TEMPO 1807/1816 23015G25KT -SHRA SCT015 PROB30 TEMPO 1811/1816 6000 SHRA SCT012CB TEMPO 1816/1821 6000 SHRA BKN022 PROB30 TEMPO 1816/1818 25015G25KT 3500 +SHRAGS SCT012CB